KDWH/DWH METAR and TAF weather

Enter ICAO airport designator
Station Type Date Time Source
KDWH METAR 2022/06/27 17:53 UTC NOAA

KDWH 271753Z VRB04KT 10SM CLR 38/21 A3007 RMK AO2 SLP178 T03780211 10378 20267 58013 $


Station Type Date Time Source
KDWH Decoded METAR 2022/06/27 17:53 UTC NOAA

HOUSTON HOOKS MEMORIAL, TX, United States (KDWH) 30-04N 95-33W 46M
Jun 27, 2022 - 01:53 PM EDT / 2022.06.27 1753 UTC
Wind: Variable at 5 MPH (4 KT):0
Visibility: 10 mile(s):0
Sky conditions: clear
Temperature: 100.0 F (37.8 C)
Heat index: 107.8 F (42.1 C):1
Dew Point: 70.0 F (21.1 C)
Relative Humidity: 38%
Pressure (altimeter): 30.07 in. Hg (1018 hPa)
Pressure tendency: 0.04 inches (1.3 hPa) lower than three hours ago
ob: KDWH 271753Z VRB04KT 10SM CLR 38/21 A3007 RMK AO2 SLP178 T03780211 10378 20267 58013
cycle: 18

Station Type Date Time Source
KDWH TAF 2017/02/07 15:09 UTC NOAA

TAF
AMD KDWH 071507Z 0715/0812 23010KT P6SM BKN015
TEMPO 0715/0719 SCT015
FM071900 25010KT P6SM SCT025
FM080100 22005KT P6SM SCT250
TEMPO 0807/0809 3SM BR BKN013
FM080900 VRB03KT 2SM BR OVC008

Example: see airport list